sensor_id;sensor_type;location;lat;lon;timestamp;temperature;humidity
12408;DHT22;6268;48.188;17.134;2023-06-10T00:00:09;18.70;99.90
12408;DHT22;6268;48.188;17.134;2023-06-10T00:02:41;18.70;99.90
12408;DHT22;6268;48.188;17.134;2023-06-10T00:05:14;18.70;99.90
12408;DHT22;6268;48.188;17.134;2023-06-10T00:07:43;18.60;99.90
12408;DHT22;6268;48.188;17.134;2023-06-10T00:10:13;18.70;99.90
12408;DHT22;6268;48.188;17.134;2023-06-10T00:12:43;18.70;99.90
12408;DHT22;6268;48.188;17.134;2023-06-10T00:15:14;18.60;99.90
12408;DHT22;6268;48.188;17.134;2023-06-10T00:17:43;18.60;99.90
12408;DHT22;6268;48.188;17.134;2023-06-10T00:20:12;18.60;99.90
12408;DHT22;6268;48.188;17.134;2023-06-10T00:22:41;18.60;99.90
12408;DHT22;6268;48.188;17.134;2023-06-10T00:25:13;18.60;99.90
12408;DHT22;6268;48.188;17.134;2023-06-10T00:27:41;18.60;99.90
12408;DHT22;6268;48.188;17.134;2023-06-10T00:30:11;18.50;99.90
12408;DHT22;6268;48.188;17.134;2023-06-10T00:32:39;18.50;99.90
12408;DHT22;6268;48.188;17.134;2023-06-10T00:35:10;18.50;99.90
12408;DHT22;6268;48.188;17.134;2023-06-10T00:37:39;18.50;99.90
12408;DHT22;6268;48.188;17.134;2023-06-10T00:40:08;18.50;99.90
12408;DHT22;6268;48.188;17.134;2023-06-10T00:42:37;18.50;99.90
12408;DHT22;6268;48.188;17.134;2023-06-10T00:45:06;18.50;99.90
12408;DHT22;6268;48.188;17.134;2023-06-10T00:47:36;18.50;99.90
12408;DHT22;6268;48.188;17.134;2023-06-10T00:50:06;18.50;99.90
12408;DHT22;6268;48.188;17.134;2023-06-10T00:52:36;18.50;99.90
12408;DHT22;6268;48.188;17.134;2023-06-10T00:55:05;18.50;99.90
12408;DHT22;6268;48.188;17.134;2023-06-10T00:57:36;18.50;99.90
12408;DHT22;6268;48.188;17.134;2023-06-10T01:00:06;18.50;99.90
12408;DHT22;6268;48.188;17.134;2023-06-10T01:02:36;18.50;99.90
12408;DHT22;6268;48.188;17.134;2023-06-10T01:05:05;18.50;99.90
12408;DHT22;6268;48.188;17.134;2023-06-10T01:07:40;18.50;99.90
12408;DHT22;6268;48.188;17.134;2023-06-10T01:10:16;18.50;99.90
12408;DHT22;6268;48.188;17.134;2023-06-10T01:12:55;18.50;99.90
12408;DHT22;6268;48.188;17.134;2023-06-10T01:15:30;18.60;99.90
12408;DHT22;6268;48.188;17.134;2023-06-10T01:18:00;18.50;99.90
12408;DHT22;6268;48.188;17.134;2023-06-10T01:20:30;18.40;99.90
12408;DHT22;6268;48.188;17.134;2023-06-10T01:23:01;18.50;99.90
12408;DHT22;6268;48.188;17.134;2023-06-10T01:25:31;18.60;99.90
12408;DHT22;6268;48.188;17.134;2023-06-10T01:28:10;18.50;99.90
12408;DHT22;6268;48.188;17.134;2023-06-10T01:30:47;18.50;99.90
12408;DHT22;6268;48.188;17.134;2023-06-10T01:36:03;18.60;99.90
12408;DHT22;6268;48.188;17.134;2023-06-10T01:38:36;18.60;99.90
12408;DHT22;6268;48.188;17.134;2023-06-10T01:41:07;18.60;99.90
12408;DHT22;6268;48.188;17.134;2023-06-10T01:43:37;18.60;99.90
12408;DHT22;6268;48.188;17.134;2023-06-10T01:46:06;18.60;99.90
12408;DHT22;6268;48.188;17.134;2023-06-10T01:48:35;18.60;99.90
12408;DHT22;6268;48.188;17.134;2023-06-10T01:51:03;18.60;99.90
12408;DHT22;6268;48.188;17.134;2023-06-10T01:53:33;18.60;99.90
12408;DHT22;6268;48.188;17.134;2023-06-10T01:56:02;18.60;99.90
12408;DHT22;6268;48.188;17.134;2023-06-10T01:58:30;18.60;99.90
12408;DHT22;6268;48.188;17.134;2023-06-10T02:00:59;18.60;99.90
12408;DHT22;6268;48.188;17.134;2023-06-10T02:03:27;18.50;99.90
12408;DHT22;6268;48.188;17.134;2023-06-10T02:05:56;18.50;99.90
12408;DHT22;6268;48.188;17.134;2023-06-10T02:08:24;18.50;99.90
12408;DHT22;6268;48.188;17.134;2023-06-10T02:10:56;18.50;99.90
12408;DHT22;6268;48.188;17.134;2023-06-10T02:13:24;18.50;99.90
12408;DHT22;6268;48.188;17.134;2023-06-10T02:15:52;18.50;99.90
12408;DHT22;6268;48.188;17.134;2023-06-10T02:18:22;18.50;99.90
12408;DHT22;6268;48.188;17.134;2023-06-10T02:20:50;18.50;99.90
12408;DHT22;6268;48.188;17.134;2023-06-10T02:23:18;18.50;99.90
12408;DHT22;6268;48.188;17.134;2023-06-10T02:25:47;18.50;99.90
12408;DHT22;6268;48.188;17.134;2023-06-10T02:28:17;18.50;99.90
12408;DHT22;6268;48.188;17.134;2023-06-10T02:30:46;18.40;99.90
12408;DHT22;6268;48.188;17.134;2023-06-10T02:33:15;18.40;99.90
12408;DHT22;6268;48.188;17.134;2023-06-10T02:35:44;18.40;99.90
12408;DHT22;6268;48.188;17.134;2023-06-10T02:38:13;18.40;99.90
12408;DHT22;6268;48.188;17.134;2023-06-10T02:40:41;18.30;99.90
12408;DHT22;6268;48.188;17.134;2023-06-10T02:43:10;18.30;99.90
12408;DHT22;6268;48.188;17.134;2023-06-10T02:45:40;18.30;99.90
12408;DHT22;6268;48.188;17.134;2023-06-10T02:48:08;18.30;99.90
12408;DHT22;6268;48.188;17.134;2023-06-10T02:50:37;18.20;99.90
12408;DHT22;6268;48.188;17.134;2023-06-10T02:53:07;18.20;99.90
12408;DHT22;6268;48.188;17.134;2023-06-10T02:55:36;18.30;99.90
12408;DHT22;6268;48.188;17.134;2023-06-10T02:58:05;18.30;99.90
12408;DHT22;6268;48.188;17.134;2023-06-10T03:00:34;18.30;99.90
12408;DHT22;6268;48.188;17.134;2023-06-10T03:03:04;18.30;99.90
12408;DHT22;6268;48.188;17.134;2023-06-10T03:05:33;18.20;99.90
12408;DHT22;6268;48.188;17.134;2023-06-10T03:08:01;18.20;99.90
12408;DHT22;6268;48.188;17.134;2023-06-10T03:10:30;18.20;99.90
12408;DHT22;6268;48.188;17.134;2023-06-10T03:13:00;18.30;99.90
12408;DHT22;6268;48.188;17.134;2023-06-10T03:15:28;18.30;99.90
12408;DHT22;6268;48.188;17.134;2023-06-10T03:18:00;18.30;99.90
12408;DHT22;6268;48.188;17.134;2023-06-10T03:20:31;18.30;99.90
12408;DHT22;6268;48.188;17.134;2023-06-10T03:23:04;18.40;99.90
12408;DHT22;6268;48.188;17.134;2023-06-10T03:25:33;18.40;99.90
12408;DHT22;6268;48.188;17.134;2023-06-10T03:28:02;18.40;99.90
12408;DHT22;6268;48.188;17.134;2023-06-10T03:30:30;18.40;99.90
12408;DHT22;6268;48.188;17.134;2023-06-10T03:32:59;18.50;99.90
12408;DHT22;6268;48.188;17.134;2023-06-10T03:35:27;18.50;99.90
12408;DHT22;6268;48.188;17.134;2023-06-10T03:37:57;18.70;99.90
12408;DHT22;6268;48.188;17.134;2023-06-10T03:40:26;18.80;99.90
12408;DHT22;6268;48.188;17.134;2023-06-10T03:42:54;18.90;99.90
12408;DHT22;6268;48.188;17.134;2023-06-10T03:45:23;19.10;99.90
12408;DHT22;6268;48.188;17.134;2023-06-10T03:47:51;19.10;99.90
12408;DHT22;6268;48.188;17.134;2023-06-10T03:50:20;19.20;99.90
12408;DHT22;6268;48.188;17.134;2023-06-10T03:52:50;19.40;99.90
12408;DHT22;6268;48.188;17.134;2023-06-10T03:55:20;19.60;99.90
12408;DHT22;6268;48.188;17.134;2023-06-10T03:57:50;19.80;99.90
12408;DHT22;6268;48.188;17.134;2023-06-10T04:00:19;20.00;99.90
12408;DHT22;6268;48.188;17.134;2023-06-10T04:02:48;20.30;99.90
12408;DHT22;6268;48.188;17.134;2023-06-10T04:05:19;20.50;99.90
12408;DHT22;6268;48.188;17.134;2023-06-10T04:07:49;20.80;99.90
12408;DHT22;6268;48.188;17.134;2023-06-10T04:10:19;21.00;99.90
12408;DHT22;6268;48.188;17.134;2023-06-10T04:12:48;21.20;99.90
12408;DHT22;6268;48.188;17.134;2023-06-10T04:15:16;21.30;99.90
12408;DHT22;6268;48.188;17.134;2023-06-10T04:17:45;21.60;99.90
12408;DHT22;6268;48.188;17.134;2023-06-10T04:20:15;21.80;99.90
12408;DHT22;6268;48.188;17.134;2023-06-10T04:22:43;21.90;99.90
12408;DHT22;6268;48.188;17.134;2023-06-10T04:25:11;22.20;99.90
12408;DHT22;6268;48.188;17.134;2023-06-10T04:27:41;22.40;99.90
12408;DHT22;6268;48.188;17.134;2023-06-10T04:30:11;22.60;99.90
12408;DHT22;6268;48.188;17.134;2023-06-10T04:32:40;22.60;99.90
12408;DHT22;6268;48.188;17.134;2023-06-10T04:35:12;22.70;99.90
12408;DHT22;6268;48.188;17.134;2023-06-10T04:37:41;22.90;99.90
12408;DHT22;6268;48.188;17.134;2023-06-10T04:40:10;23.20;99.90
12408;DHT22;6268;48.188;17.134;2023-06-10T04:42:38;23.60;99.90
12408;DHT22;6268;48.188;17.134;2023-06-10T04:45:09;23.80;99.90
12408;DHT22;6268;48.188;17.134;2023-06-10T04:47:38;24.00;99.90
12408;DHT22;6268;48.188;17.134;2023-06-10T04:50:07;24.30;99.90
12408;DHT22;6268;48.188;17.134;2023-06-10T04:52:36;24.60;99.90
12408;DHT22;6268;48.188;17.134;2023-06-10T04:55:05;24.80;99.90
12408;DHT22;6268;48.188;17.134;2023-06-10T04:57:34;25.20;99.90
12408;DHT22;6268;48.188;17.134;2023-06-10T05:00:03;25.50;99.90
12408;DHT22;6268;48.188;17.134;2023-06-10T05:02:34;25.60;99.90
12408;DHT22;6268;48.188;17.134;2023-06-10T05:05:03;25.60;99.90
12408;DHT22;6268;48.188;17.134;2023-06-10T05:07:32;25.50;99.90
12408;DHT22;6268;48.188;17.134;2023-06-10T05:10:00;25.30;99.90
12408;DHT22;6268;48.188;17.134;2023-06-10T05:12:30;25.50;99.90
12408;DHT22;6268;48.188;17.134;2023-06-10T05:14:58;25.50;99.90
12408;DHT22;6268;48.188;17.134;2023-06-10T05:17:28;25.50;99.90
12408;DHT22;6268;48.188;17.134;2023-06-10T05:19:58;25.20;99.90
12408;DHT22;6268;48.188;17.134;2023-06-10T05:22:27;24.60;99.90
12408;DHT22;6268;48.188;17.134;2023-06-10T05:24:55;24.30;99.90
12408;DHT22;6268;48.188;17.134;2023-06-10T05:27:24;24.00;99.90
12408;DHT22;6268;48.188;17.134;2023-06-10T05:29:52;23.80;99.90
12408;DHT22;6268;48.188;17.134;2023-06-10T05:32:21;23.60;99.90
12408;DHT22;6268;48.188;17.134;2023-06-10T05:34:49;23.40;99.90
12408;DHT22;6268;48.188;17.134;2023-06-10T05:37:19;23.30;99.90
12408;DHT22;6268;48.188;17.134;2023-06-10T05:39:48;23.10;99.90
12408;DHT22;6268;48.188;17.134;2023-06-10T05:42:16;22.90;99.90
12408;DHT22;6268;48.188;17.134;2023-06-10T05:44:45;22.70;99.90
12408;DHT22;6268;48.188;17.134;2023-06-10T05:47:13;22.60;99.90
12408;DHT22;6268;48.188;17.134;2023-06-10T05:49:42;22.50;99.90
12408;DHT22;6268;48.188;17.134;2023-06-10T05:52:12;22.40;99.90
12408;DHT22;6268;48.188;17.134;2023-06-10T05:54:42;22.40;99.90
12408;DHT22;6268;48.188;17.134;2023-06-10T05:57:11;22.50;99.90
12408;DHT22;6268;48.188;17.134;2023-06-10T05:59:39;22.60;99.90
12408;DHT22;6268;48.188;17.134;2023-06-10T06:02:08;22.70;99.90
12408;DHT22;6268;48.188;17.134;2023-06-10T06:04:37;22.80;99.90
12408;DHT22;6268;48.188;17.134;2023-06-10T06:07:05;23.00;99.90
12408;DHT22;6268;48.188;17.134;2023-06-10T06:09:34;23.30;99.90
12408;DHT22;6268;48.188;17.134;2023-06-10T06:12:05;23.40;99.90
12408;DHT22;6268;48.188;17.134;2023-06-10T06:14:37;23.40;99.90
12408;DHT22;6268;48.188;17.134;2023-06-10T06:17:06;23.40;99.90
12408;DHT22;6268;48.188;17.134;2023-06-10T06:19:35;23.30;99.90
12408;DHT22;6268;48.188;17.134;2023-06-10T06:22:04;23.30;99.90
12408;DHT22;6268;48.188;17.134;2023-06-10T06:24:32;23.40;99.90
12408;DHT22;6268;48.188;17.134;2023-06-10T06:27:01;23.60;99.90
12408;DHT22;6268;48.188;17.134;2023-06-10T06:29:31;23.90;99.90
12408;DHT22;6268;48.188;17.134;2023-06-10T06:32:00;24.20;99.90
12408;DHT22;6268;48.188;17.134;2023-06-10T06:34:28;24.50;99.90
12408;DHT22;6268;48.188;17.134;2023-06-10T06:36:57;24.60;99.90
12408;DHT22;6268;48.188;17.134;2023-06-10T06:39:25;24.70;99.90
12408;DHT22;6268;48.188;17.134;2023-06-10T06:41:54;24.70;99.90
12408;DHT22;6268;48.188;17.134;2023-06-10T06:44:22;24.60;99.90
12408;DHT22;6268;48.188;17.134;2023-06-10T06:46:52;24.50;99.90
12408;DHT22;6268;48.188;17.134;2023-06-10T06:49:21;24.50;99.90
12408;DHT22;6268;48.188;17.134;2023-06-10T06:51:49;24.60;99.90
12408;DHT22;6268;48.188;17.134;2023-06-10T06:54:18;24.70;99.90
12408;DHT22;6268;48.188;17.134;2023-06-10T06:56:46;24.90;99.90
12408;DHT22;6268;48.188;17.134;2023-06-10T06:59:15;24.90;99.90
12408;DHT22;6268;48.188;17.134;2023-06-10T07:01:46;25.00;99.90
12408;DHT22;6268;48.188;17.134;2023-06-10T07:04:16;25.70;99.90
12408;DHT22;6268;48.188;17.134;2023-06-10T07:06:46;26.30;99.90
12408;DHT22;6268;48.188;17.134;2023-06-10T07:09:15;26.40;99.90
12408;DHT22;6268;48.188;17.134;2023-06-10T07:11:43;26.20;99.90
12408;DHT22;6268;48.188;17.134;2023-06-10T07:14:12;26.00;99.90
12408;DHT22;6268;48.188;17.134;2023-06-10T07:16:40;25.80;99.90
12408;DHT22;6268;48.188;17.134;2023-06-10T07:19:09;25.80;99.90
12408;DHT22;6268;48.188;17.134;2023-06-10T07:21:39;25.70;99.90
12408;DHT22;6268;48.188;17.134;2023-06-10T07:24:07;25.60;99.90
12408;DHT22;6268;48.188;17.134;2023-06-10T07:26:36;25.50;99.90
12408;DHT22;6268;48.188;17.134;2023-06-10T07:29:05;25.60;99.90
12408;DHT22;6268;48.188;17.134;2023-06-10T07:31:33;25.40;99.90
12408;DHT22;6268;48.188;17.134;2023-06-10T07:34:02;25.50;99.90
12408;DHT22;6268;48.188;17.134;2023-06-10T07:36:30;25.40;99.90
12408;DHT22;6268;48.188;17.134;2023-06-10T07:39:00;25.30;99.90
12408;DHT22;6268;48.188;17.134;2023-06-10T07:41:29;25.10;99.90
12408;DHT22;6268;48.188;17.134;2023-06-10T07:43:57;25.00;99.90
12408;DHT22;6268;48.188;17.134;2023-06-10T07:46:26;24.80;99.90
12408;DHT22;6268;48.188;17.134;2023-06-10T07:48:55;24.60;99.90
12408;DHT22;6268;48.188;17.134;2023-06-10T07:51:24;24.40;99.90
12408;DHT22;6268;48.188;17.134;2023-06-10T07:53:52;24.40;99.90
12408;DHT22;6268;48.188;17.134;2023-06-10T07:56:22;24.20;99.90
12408;DHT22;6268;48.188;17.134;2023-06-10T07:58:52;24.20;99.90
12408;DHT22;6268;48.188;17.134;2023-06-10T08:01:22;24.10;99.90
12408;DHT22;6268;48.188;17.134;2023-06-10T08:03:51;24.20;99.90
12408;DHT22;6268;48.188;17.134;2023-06-10T08:06:19;24.40;99.90
12408;DHT22;6268;48.188;17.134;2023-06-10T08:08:48;24.60;99.90
12408;DHT22;6268;48.188;17.134;2023-06-10T08:11:16;24.60;99.90
12408;DHT22;6268;48.188;17.134;2023-06-10T08:13:46;24.60;99.90
12408;DHT22;6268;48.188;17.134;2023-06-10T08:16:16;24.60;99.90
12408;DHT22;6268;48.188;17.134;2023-06-10T08:18:44;24.60;99.90
12408;DHT22;6268;48.188;17.134;2023-06-10T08:21:13;24.60;99.90
12408;DHT22;6268;48.188;17.134;2023-06-10T08:23:41;24.50;99.90
12408;DHT22;6268;48.188;17.134;2023-06-10T08:26:11;24.40;99.90
12408;DHT22;6268;48.188;17.134;2023-06-10T08:28:40;24.40;99.90
12408;DHT22;6268;48.188;17.134;2023-06-10T08:31:09;24.40;99.90
12408;DHT22;6268;48.188;17.134;2023-06-10T08:33:38;24.40;99.90
12408;DHT22;6268;48.188;17.134;2023-06-10T08:36:06;24.50;99.90
12408;DHT22;6268;48.188;17.134;2023-06-10T08:38:35;24.50;99.90
12408;DHT22;6268;48.188;17.134;2023-06-10T08:41:05;24.40;99.90
12408;DHT22;6268;48.188;17.134;2023-06-10T08:43:39;24.40;99.90
12408;DHT22;6268;48.188;17.134;2023-06-10T08:46:10;24.30;99.90
12408;DHT22;6268;48.188;17.134;2023-06-10T08:48:42;24.20;99.90
12408;DHT22;6268;48.188;17.134;2023-06-10T08:51:11;24.10;99.90
12408;DHT22;6268;48.188;17.134;2023-06-10T08:53:46;24.00;99.90
12408;DHT22;6268;48.188;17.134;2023-06-10T08:56:17;23.90;99.90
12408;DHT22;6268;48.188;17.134;2023-06-10T08:58:47;23.80;99.90
12408;DHT22;6268;48.188;17.134;2023-06-10T09:01:18;23.80;99.90
12408;DHT22;6268;48.188;17.134;2023-06-10T09:03:46;23.70;99.90
12408;DHT22;6268;48.188;17.134;2023-06-10T09:06:16;23.80;99.90
12408;DHT22;6268;48.188;17.134;2023-06-10T09:08:45;23.80;99.90
12408;DHT22;6268;48.188;17.134;2023-06-10T09:11:13;23.80;99.90
12408;DHT22;6268;48.188;17.134;2023-06-10T09:13:42;23.90;99.90
12408;DHT22;6268;48.188;17.134;2023-06-10T09:16:10;24.00;99.90
12408;DHT22;6268;48.188;17.134;2023-06-10T09:18:42;24.10;99.90
12408;DHT22;6268;48.188;17.134;2023-06-10T09:21:10;24.20;99.90
12408;DHT22;6268;48.188;17.134;2023-06-10T09:23:39;24.10;99.90
12408;DHT22;6268;48.188;17.134;2023-06-10T09:26:09;24.10;99.90
12408;DHT22;6268;48.188;17.134;2023-06-10T09:28:38;24.00;99.90
12408;DHT22;6268;48.188;17.134;2023-06-10T09:31:07;24.10;99.90
12408;DHT22;6268;48.188;17.134;2023-06-10T09:33:37;24.10;99.90
12408;DHT22;6268;48.188;17.134;2023-06-10T09:36:08;24.10;99.90
12408;DHT22;6268;48.188;17.134;2023-06-10T09:38:36;24.10;99.90
12408;DHT22;6268;48.188;17.134;2023-06-10T09:41:05;24.20;99.90
12408;DHT22;6268;48.188;17.134;2023-06-10T09:43:41;24.20;99.90
12408;DHT22;6268;48.188;17.134;2023-06-10T09:46:16;24.20;99.90
12408;DHT22;6268;48.188;17.134;2023-06-10T09:48:46;24.10;99.90
12408;DHT22;6268;48.188;17.134;2023-06-10T09:51:16;24.10;99.90
12408;DHT22;6268;48.188;17.134;2023-06-10T09:53:48;24.00;99.90
12408;DHT22;6268;48.188;17.134;2023-06-10T09:56:18;24.00;99.90
12408;DHT22;6268;48.188;17.134;2023-06-10T09:58:46;23.90;99.90
12408;DHT22;6268;48.188;17.134;2023-06-10T10:01:15;23.80;99.90
12408;DHT22;6268;48.188;17.134;2023-06-10T10:03:45;23.70;99.90
12408;DHT22;6268;48.188;17.134;2023-06-10T10:06:17;23.60;99.90
12408;DHT22;6268;48.188;17.134;2023-06-10T10:08:47;23.50;99.90
12408;DHT22;6268;48.188;17.134;2023-06-10T10:11:17;23.50;99.90
12408;DHT22;6268;48.188;17.134;2023-06-10T10:13:48;23.50;99.90
12408;DHT22;6268;48.188;17.134;2023-06-10T10:16:18;23.50;99.90
12408;DHT22;6268;48.188;17.134;2023-06-10T10:18:54;23.40;99.90
12408;DHT22;6268;48.188;17.134;2023-06-10T10:21:27;23.40;99.90
12408;DHT22;6268;48.188;17.134;2023-06-10T10:24:07;23.50;99.90
12408;DHT22;6268;48.188;17.134;2023-06-10T10:26:38;23.60;99.90
12408;DHT22;6268;48.188;17.134;2023-06-10T10:29:11;23.60;99.90
12408;DHT22;6268;48.188;17.134;2023-06-10T10:31:43;23.70;99.90
12408;DHT22;6268;48.188;17.134;2023-06-10T10:34:15;23.80;99.90
12408;DHT22;6268;48.188;17.134;2023-06-10T10:36:46;24.00;99.90
12408;DHT22;6268;48.188;17.134;2023-06-10T10:39:15;24.20;99.90
12408;DHT22;6268;48.188;17.134;2023-06-10T10:41:44;24.40;99.90
12408;DHT22;6268;48.188;17.134;2023-06-10T10:44:13;24.50;99.90
12408;DHT22;6268;48.188;17.134;2023-06-10T10:46:43;24.70;99.90
12408;DHT22;6268;48.188;17.134;2023-06-10T10:49:13;24.90;99.90
12408;DHT22;6268;48.188;17.134;2023-06-10T10:51:56;25.10;99.90
12408;DHT22;6268;48.188;17.134;2023-06-10T10:54:29;25.20;99.90
12408;DHT22;6268;48.188;17.134;2023-06-10T10:57:15;25.30;99.90
12408;DHT22;6268;48.188;17.134;2023-06-10T10:59:55;25.50;99.90
12408;DHT22;6268;48.188;17.134;2023-06-10T11:02:40;25.70;99.90
12408;DHT22;6268;48.188;17.134;2023-06-10T11:05:12;26.00;99.90
12408;DHT22;6268;48.188;17.134;2023-06-10T11:07:53;26.10;99.90
12408;DHT22;6268;48.188;17.134;2023-06-10T11:10:29;26.20;99.90
12408;DHT22;6268;48.188;17.134;2023-06-10T11:12:58;26.40;99.90
12408;DHT22;6268;48.188;17.134;2023-06-10T11:15:27;26.50;99.90
12408;DHT22;6268;48.188;17.134;2023-06-10T11:18:24;26.60;99.90
12408;DHT22;6268;48.188;17.134;2023-06-10T11:21:00;26.70;99.90
12408;DHT22;6268;48.188;17.134;2023-06-10T11:23:41;26.70;99.90
12408;DHT22;6268;48.188;17.134;2023-06-10T11:26:19;26.70;99.90
12408;DHT22;6268;48.188;17.134;2023-06-10T11:29:06;26.80;99.90
12408;DHT22;6268;48.188;17.134;2023-06-10T11:31:44;26.80;99.90
12408;DHT22;6268;48.188;17.134;2023-06-10T11:34:15;26.90;99.90
12408;DHT22;6268;48.188;17.134;2023-06-10T11:36:43;27.10;99.90
12408;DHT22;6268;48.188;17.134;2023-06-10T11:39:14;27.20;99.90
12408;DHT22;6268;48.188;17.134;2023-06-10T11:41:43;27.20;99.90
12408;DHT22;6268;48.188;17.134;2023-06-10T11:44:13;27.30;99.90
12408;DHT22;6268;48.188;17.134;2023-06-10T11:46:48;27.30;99.90
12408;DHT22;6268;48.188;17.134;2023-06-10T11:49:17;27.20;99.90
12408;DHT22;6268;48.188;17.134;2023-06-10T11:51:45;27.10;99.90
12408;DHT22;6268;48.188;17.134;2023-06-10T11:54:20;27.10;99.90
12408;DHT22;6268;48.188;17.134;2023-06-10T11:56:49;27.10;99.90
12408;DHT22;6268;48.188;17.134;2023-06-10T11:59:18;27.10;99.90
12408;DHT22;6268;48.188;17.134;2023-06-10T12:01:46;27.20;99.90
12408;DHT22;6268;48.188;17.134;2023-06-10T12:04:16;27.20;99.90
12408;DHT22;6268;48.188;17.134;2023-06-10T12:06:46;27.20;99.90
12408;DHT22;6268;48.188;17.134;2023-06-10T12:09:21;27.20;99.90
12408;DHT22;6268;48.188;17.134;2023-06-10T12:11:56;27.30;99.90
12408;DHT22;6268;48.188;17.134;2023-06-10T12:14:50;27.10;99.90
12408;DHT22;6268;48.188;17.134;2023-06-10T12:17:22;26.60;99.90
12408;DHT22;6268;48.188;17.134;2023-06-10T12:19:51;26.50;99.90
12408;DHT22;6268;48.188;17.134;2023-06-10T12:22:20;26.40;99.90
12408;DHT22;6268;48.188;17.134;2023-06-10T12:25:03;26.30;99.90
12408;DHT22;6268;48.188;17.134;2023-06-10T12:27:35;26.30;99.90
12408;DHT22;6268;48.188;17.134;2023-06-10T12:30:05;26.10;99.90
12408;DHT22;6268;48.188;17.134;2023-06-10T12:32:39;26.00;99.90
12408;DHT22;6268;48.188;17.134;2023-06-10T12:35:09;25.90;99.90
12408;DHT22;6268;48.188;17.134;2023-06-10T12:37:40;25.70;99.90
12408;DHT22;6268;48.188;17.134;2023-06-10T12:40:11;25.60;99.90
12408;DHT22;6268;48.188;17.134;2023-06-10T12:42:40;25.30;99.90
12408;DHT22;6268;48.188;17.134;2023-06-10T12:45:09;25.00;99.90
12408;DHT22;6268;48.188;17.134;2023-06-10T12:47:39;25.00;99.90
12408;DHT22;6268;48.188;17.134;2023-06-10T12:50:09;25.20;99.90
12408;DHT22;6268;48.188;17.134;2023-06-10T12:52:39;25.30;99.90
12408;DHT22;6268;48.188;17.134;2023-06-10T12:55:10;25.30;99.90
12408;DHT22;6268;48.188;17.134;2023-06-10T12:57:48;25.50;99.90
12408;DHT22;6268;48.188;17.134;2023-06-10T13:00:18;25.50;99.90
12408;DHT22;6268;48.188;17.134;2023-06-10T13:02:48;25.50;99.90
12408;DHT22;6268;48.188;17.134;2023-06-10T13:05:17;25.50;99.90
12408;DHT22;6268;48.188;17.134;2023-06-10T13:07:46;25.60;99.90
12408;DHT22;6268;48.188;17.134;2023-06-10T13:10:17;25.60;99.90
12408;DHT22;6268;48.188;17.134;2023-06-10T13:12:48;25.50;99.90
12408;DHT22;6268;48.188;17.134;2023-06-10T13:15:17;25.60;99.90
12408;DHT22;6268;48.188;17.134;2023-06-10T13:17:46;25.60;99.90
12408;DHT22;6268;48.188;17.134;2023-06-10T13:20:17;25.70;99.90
12408;DHT22;6268;48.188;17.134;2023-06-10T13:22:45;25.90;99.90
12408;DHT22;6268;48.188;17.134;2023-06-10T13:25:16;25.90;99.90
12408;DHT22;6268;48.188;17.134;2023-06-10T13:27:44;26.00;99.90
12408;DHT22;6268;48.188;17.134;2023-06-10T13:30:13;26.00;99.90
12408;DHT22;6268;48.188;17.134;2023-06-10T13:32:41;26.00;99.90
12408;DHT22;6268;48.188;17.134;2023-06-10T13:35:10;26.10;99.90
12408;DHT22;6268;48.188;17.134;2023-06-10T13:37:39;26.20;99.90
12408;DHT22;6268;48.188;17.134;2023-06-10T13:40:09;26.30;99.90
12408;DHT22;6268;48.188;17.134;2023-06-10T13:42:39;26.40;99.90
12408;DHT22;6268;48.188;17.134;2023-06-10T13:45:08;26.40;99.90
12408;DHT22;6268;48.188;17.134;2023-06-10T13:47:37;26.40;99.90
12408;DHT22;6268;48.188;17.134;2023-06-10T13:50:07;26.40;99.90
12408;DHT22;6268;48.188;17.134;2023-06-10T13:52:36;26.40;99.90
12408;DHT22;6268;48.188;17.134;2023-06-10T13:55:05;26.40;99.90
12408;DHT22;6268;48.188;17.134;2023-06-10T13:57:34;26.40;99.90
12408;DHT22;6268;48.188;17.134;2023-06-10T14:00:05;26.40;99.90
12408;DHT22;6268;48.188;17.134;2023-06-10T14:02:34;26.40;99.90
12408;DHT22;6268;48.188;17.134;2023-06-10T14:05:03;26.30;99.90
12408;DHT22;6268;48.188;17.134;2023-06-10T14:07:32;26.30;99.90
12408;DHT22;6268;48.188;17.134;2023-06-10T14:10:01;26.30;99.90
12408;DHT22;6268;48.188;17.134;2023-06-10T14:12:30;26.30;99.90
12408;DHT22;6268;48.188;17.134;2023-06-10T14:14:58;26.20;99.90
12408;DHT22;6268;48.188;17.134;2023-06-10T14:17:28;26.20;99.90
12408;DHT22;6268;48.188;17.134;2023-06-10T14:19:57;26.30;99.90
12408;DHT22;6268;48.188;17.134;2023-06-10T14:22:25;26.30;99.90
12408;DHT22;6268;48.188;17.134;2023-06-10T14:24:54;26.30;99.90
12408;DHT22;6268;48.188;17.134;2023-06-10T14:27:22;26.30;99.90
12408;DHT22;6268;48.188;17.134;2023-06-10T14:29:51;26.20;99.90
12408;DHT22;6268;48.188;17.134;2023-06-10T14:32:20;26.20;99.90
12408;DHT22;6268;48.188;17.134;2023-06-10T14:34:50;26.30;99.90
12408;DHT22;6268;48.188;17.134;2023-06-10T14:37:18;26.40;99.90
12408;DHT22;6268;48.188;17.134;2023-06-10T14:39:47;26.40;99.90
12408;DHT22;6268;48.188;17.134;2023-06-10T14:42:15;26.50;99.90
12408;DHT22;6268;48.188;17.134;2023-06-10T14:44:44;26.50;99.90
12408;DHT22;6268;48.188;17.134;2023-06-10T14:47:12;26.60;99.90
12408;DHT22;6268;48.188;17.134;2023-06-10T14:49:41;26.40;99.90
12408;DHT22;6268;48.188;17.134;2023-06-10T14:52:12;26.20;99.90
12408;DHT22;6268;48.188;17.134;2023-06-10T14:54:41;26.20;99.90
12408;DHT22;6268;48.188;17.134;2023-06-10T14:57:09;26.10;99.90
12408;DHT22;6268;48.188;17.134;2023-06-10T14:59:38;26.00;99.90
12408;DHT22;6268;48.188;17.134;2023-06-10T15:02:06;25.80;99.90
12408;DHT22;6268;48.188;17.134;2023-06-10T15:04:35;25.40;99.90
12408;DHT22;6268;48.188;17.134;2023-06-10T15:07:04;25.00;99.90
12408;DHT22;6268;48.188;17.134;2023-06-10T15:09:35;24.80;99.90
12408;DHT22;6268;48.188;17.134;2023-06-10T15:12:04;24.70;99.90
12408;DHT22;6268;48.188;17.134;2023-06-10T15:14:33;24.60;99.90
12408;DHT22;6268;48.188;17.134;2023-06-10T15:17:02;24.60;99.90
12408;DHT22;6268;48.188;17.134;2023-06-10T15:19:30;24.50;99.90
12408;DHT22;6268;48.188;17.134;2023-06-10T15:21:59;24.40;99.90
12408;DHT22;6268;48.188;17.134;2023-06-10T15:24:27;24.20;99.90
12408;DHT22;6268;48.188;17.134;2023-06-10T15:26:57;24.00;99.90
12408;DHT22;6268;48.188;17.134;2023-06-10T15:29:27;24.00;99.90
12408;DHT22;6268;48.188;17.134;2023-06-10T15:31:55;23.50;99.90
12408;DHT22;6268;48.188;17.134;2023-06-10T15:34:24;23.00;99.90
12408;DHT22;6268;48.188;17.134;2023-06-10T15:36:52;22.80;99.90
12408;DHT22;6268;48.188;17.134;2023-06-10T15:39:21;22.50;99.90
12408;DHT22;6268;48.188;17.134;2023-06-10T15:41:51;22.30;99.90
12408;DHT22;6268;48.188;17.134;2023-06-10T15:44:21;22.20;99.90
12408;DHT22;6268;48.188;17.134;2023-06-10T15:46:50;22.10;99.90
12408;DHT22;6268;48.188;17.134;2023-06-10T15:49:18;22.10;99.90